Time;durP1;ratioP1;P1;durP2;ratioP2;P2;SDS_P1;SDS_P2;PMS_P1;PMS_P2;Temp;Humidity;BMP_temperature;BMP_pressure;BME280_temperature;BME280_humidity;BME280_pressure;Samples;Min_cycle;Max_cycle;Signal;HPM_P1;HPM_P2
2024/01/20 00:01:15;;;;;;;30.05;14.23;;;;;;;-146.27;85.01;43439.28;5069668;28;20116;-73
2024/01/20 00:03:40;;;;;;;31.33;16.35;;;;;;;-146.27;86.23;43311.97;5067959;28;20067;-72
2024/01/20 00:06:05;;;;;;;28.75;16.10;;;;;;;-146.27;84.80;43375.63;5071088;28;20054;-72
2024/01/20 00:08:31;;;;;;;36.67;17.58;;;;;;;-146.27;83.99;43335.84;5071099;28;20034;-72
2024/01/20 00:10:56;;;;;;;32.00;16.33;;;;;;;-146.27;84.00;43369.66;5069703;28;20017;-72
2024/01/20 00:13:21;;;;;;;31.35;17.10;;;;;;;-146.27;84.77;43335.84;5054825;28;20025;-72
2024/01/20 00:15:47;;;;;;;30.73;16.10;;;;;;;-146.27;84.02;43385.59;5062953;28;20024;-72
2024/01/20 00:18:12;;;;;;;30.27;16.05;;;;;;;-146.27;84.33;43389.56;5072339;28;20099;-72
2024/01/20 00:20:38;;;;;;;27.48;15.45;;;;;;;-146.27;85.33;43371.66;5071693;28;20025;-73
2024/01/20 00:23:03;;;;;;;26.60;15.10;;;;;;;-146.27;86.06;43347.78;5070843;28;20024;-72
2024/01/20 00:25:28;;;;;;;28.58;16.23;;;;;;;-146.27;85.26;43349.78;5071191;28;20105;-73
2024/01/20 00:27:54;;;;;;;29.00;16.90;;;;;;;-146.27;84.31;43371.66;5070065;28;20489;-72
2024/01/20 00:30:19;;;;;;;32.20;16.45;;;;;;;-146.27;84.54;43397.53;5071624;28;20078;-72
2024/01/20 00:32:45;;;;;;;32.30;17.35;;;;;;;-146.27;84.90;43379.63;5053952;28;20385;-72
2024/01/20 00:35:10;;;;;;;31.35;16.40;;;;;;;-146.27;84.91;43351.75;5057913;28;20052;-72
2024/01/20 00:37:37;;;;;;;28.13;15.52;;;;;;;-146.27;85.03;43395.53;5054342;28;20113;-72
2024/01/20 00:40:04;;;;;;;30.52;16.40;;;;;;;-146.27;84.88;43343.81;5061189;28;20476;-72
2024/01/20 00:42:30;;;;;;;35.47;16.35;;;;;;;-146.27;84.53;43389.56;5061181;28;20063;-72
2024/01/20 00:44:55;;;;;;;28.27;15.68;;;;;;;-146.27;84.48;43371.66;5058496;28;20486;-72
2024/01/20 00:47:20;;;;;;;32.80;16.60;;;;;;;-146.27;84.39;43409.44;5069242;28;20017;-72
2024/01/20 00:49:47;;;;;;;31.67;16.77;;;;;;;-146.27;84.95;43419.41;5071623;28;20028;-72
2024/01/20 00:52:12;;;;;;;32.45;17.10;;;;;;;-146.27;84.85;43387.56;5068084;28;20038;-73
2024/01/20 00:54:37;;;;;;;31.83;15.43;;;;;;;-146.27;85.57;43349.78;5070916;28;20472;-73
2024/01/20 00:57:04;;;;;;;31.83;17.83;;;;;;;-146.27;84.67;43381.59;5071174;28;20109;-72
2024/01/20 00:59:29;;;;;;;24.52;15.00;;;;;;;-146.27;84.25;43455.22;5069361;28;20228;-72
2024/01/20 01:01:54;;;;;;;27.48;15.50;;;;;;;-146.27;85.40;43411.44;5070065;28;20081;-72
2024/01/20 01:04:20;;;;;;;30.30;16.02;;;;;;;-146.27;86.12;43403.50;5069994;28;20388;-72
2024/01/20 01:06:45;;;;;;;36.45;17.52;;;;;;;-146.27;86.46;43327.91;5068818;28;20028;-72
2024/01/20 01:09:11;;;;;;;26.15;14.68;;;;;;;-146.27;85.08;43355.75;5069863;28;20502;-72
2024/01/20 01:11:36;;;;;;;33.63;16.38;;;;;;;-146.27;84.79;43401.50;5069398;28;20466;-72
2024/01/20 01:14:01;;;;;;;29.30;16.10;;;;;;;-146.27;85.91;43405.47;5065114;28;20410;-72
2024/01/20 01:16:27;;;;;;;29.60;16.13;;;;;;;-146.27;84.95;43433.31;5068860;28;20115;-72
2024/01/20 01:18:52;;;;;;;33.00;17.13;;;;;;;-146.27;84.79;43381.59;5071060;28;20460;-72
2024/01/20 01:21:17;;;;;;;29.30;16.50;;;;;;;-146.27;85.19;43421.38;5062901;28;20399;-72
2024/01/20 01:23:43;;;;;;;32.03;16.98;;;;;;;-146.27;85.80;43343.81;5066957;28;20025;-72
2024/01/20 01:26:08;;;;;;;32.10;18.13;;;;;;;-146.27;84.83;43403.50;5059129;28;20024;-72
2024/01/20 01:28:33;;;;;;;33.00;16.13;;;;;;;-146.27;85.63;43419.41;5050983;28;20025;-72
2024/01/20 01:30:59;;;;;;;31.25;17.08;;;;;;;-146.27;86.16;43355.75;5065400;28;20028;-72
2024/01/20 01:33:24;;;;;;;30.77;16.77;;;;;;;-146.27;86.23;43343.81;5065453;28;20130;-72
2024/01/20 01:35:49;;;;;;;32.35;17.30;;;;;;;-146.27;85.07;43347.78;5069638;28;20466;-72
2024/01/20 01:38:15;;;;;;;35.30;17.95;;;;;;;-146.27;85.04;43393.53;5069937;28;20503;-73
2024/01/20 01:40:40;;;;;;;38.13;18.13;;;;;;;-146.27;84.67;43379.63;5068883;28;20036;-72
2024/01/20 01:43:05;;;;;;;37.20;17.98;;;;;;;-146.27;84.17;43467.13;5066156;28;20509;-72
2024/01/20 01:45:32;;;;;;;34.47;18.20;;;;;;;-146.27;85.15;43375.63;5052263;28;20031;-72
2024/01/20 01:47:58;;;;;;;32.03;16.80;;;;;;;-146.27;84.36;43413.44;5063474;28;20052;-72
2024/01/20 01:50:23;;;;;;;37.22;17.90;;;;;;;-146.27;84.17;43431.34;5063263;28;20519;-72
2024/01/20 01:52:54;;;;;;;33.10;18.13;;;;;;;-146.27;84.27;43395.53;5070242;28;20492;-72
2024/01/20 01:55:20;;;;;;;39.03;18.17;;;;;;;-146.27;84.44;43419.41;5067034;28;20554;-72
2024/01/20 01:57:46;;;;;;;37.63;19.83;;;;;;;-146.27;84.91;43443.28;5067149;28;20512;-72
2024/01/20 02:00:12;;;;;;;39.55;19.58;;;;;;;-146.27;85.14;43407.47;5054202;28;20111;-72
2024/01/20 02:02:37;;;;;;;34.83;17.40;;;;;;;-146.27;86.19;43411.44;5067877;28;20024;-72
2024/01/20 02:05:03;;;;;;;36.42;18.00;;;;;;;-146.27;85.15;43377.63;5069926;28;20464;-72
2024/01/20 02:07:29;;;;;;;36.03;17.60;;;;;;;-146.27;85.16;43439.28;5069030;28;20056;-72
2024/01/20 02:09:55;;;;;;;35.63;18.00;;;;;;;-146.27;85.54;43407.47;5065938;28;20093;-72
2024/01/20 02:12:21;;;;;;;31.13;18.45;;;;;;;-146.27;85.36;43383.59;5052699;28;20388;-72
2024/01/20 02:14:47;;;;;;;37.05;18.00;;;;;;;-146.27;85.82;43363.69;5062447;28;20036;-72
2024/01/20 02:17:13;;;;;;;45.63;19.58;;;;;;;-146.27;85.00;43395.53;5053441;28;20017;-72
2024/01/20 02:19:39;;;;;;;43.15;18.48;;;;;;;-146.27;85.70;43373.66;5063836;28;20029;-72
2024/01/20 02:22:12;;;;;;;50.53;19.42;;;;;;;-146.27;85.40;43363.69;5069888;28;20024;-73
2024/01/20 02:24:39;;;;;;;35.57;18.07;;;;;;;-146.27;85.45;43385.59;5069586;28;20117;-73
2024/01/20 02:27:04;;;;;;;43.88;19.65;;;;;;;-146.27;86.02;43353.75;5069869;28;20081;-72
2024/01/20 02:29:30;;;;;;;44.03;21.17;;;;;;;-146.27;85.82;43395.53;5068177;28;20033;-72
2024/01/20 02:31:55;;;;;;;35.20;17.95;;;;;;;-146.27;87.11;43339.84;5067812;28;20090;-72
2024/01/20 02:34:20;;;;;;;44.40;19.95;;;;;;;-146.27;86.87;43292.09;5051180;28;20044;-72
2024/01/20 02:36:46;;;;;;;44.00;18.95;;;;;;;-146.27;86.12;43300.06;5070027;28;20063;-74
2024/01/20 02:39:11;;;;;;;44.70;20.52;;;;;;;-146.27;85.49;43311.97;5067446;28;20051;-74
2024/01/20 02:41:36;;;;;;;38.95;17.50;;;;;;;-146.27;86.16;43349.78;5065432;28;20055;-72
2024/01/20 02:44:02;;;;;;;40.53;19.17;;;;;;;-146.27;87.31;43308.00;5069579;28;20059;-71
2024/01/20 02:46:27;;;;;;;38.30;18.48;;;;;;;-146.27;85.81;43292.09;5070241;28;20028;-72
2024/01/20 02:48:52;;;;;;;43.25;19.67;;;;;;;-146.27;85.51;43367.69;5068233;28;20409;-72
2024/01/20 02:51:18;;;;;;;40.42;18.95;;;;;;;-146.27;85.71;43302.03;5060765;28;20024;-72
2024/01/20 02:53:43;;;;;;;42.38;19.90;;;;;;;-146.27;86.30;43304.03;5067221;28;20035;-72
2024/01/20 02:56:08;;;;;;;41.72;19.77;;;;;;;-146.27;85.60;43308.00;5066915;28;20029;-72
2024/01/20 02:58:34;;;;;;;37.10;18.38;;;;;;;-146.27;85.97;43363.69;5068478;28;20012;-72
2024/01/20 03:01:00;;;;;;;38.40;18.98;;;;;;;-146.27;85.82;43290.09;5068868;28;20572;-72
2024/01/20 03:03:26;;;;;;;38.35;18.40;;;;;;;-146.27;86.04;43313.97;5067779;28;20078;-72
2024/01/20 03:05:51;;;;;;;31.65;16.75;;;;;;;-146.27;86.12;43327.91;5068845;28;20451;-72
2024/01/20 03:08:17;;;;;;;45.60;19.23;;;;;;;-146.27;85.51;43300.06;5060813;28;20024;-73
2024/01/20 03:10:42;;;;;;;37.75;18.88;;;;;;;-146.27;85.53;43335.84;5067076;28;20028;-72
2024/01/20 03:13:08;;;;;;;39.22;18.63;;;;;;;-146.27;85.70;43317.94;5069120;28;20066;-72
2024/01/20 03:15:33;;;;;;;37.65;17.17;;;;;;;-146.27;85.29;43331.88;5052233;28;20029;-72
2024/01/20 03:17:58;;;;;;;41.80;16.75;;;;;;;-146.27;84.86;43310.00;5067722;28;20089;-72
2024/01/20 03:20:24;;;;;;;39.25;18.05;;;;;;;-146.27;85.26;43311.97;5055308;28;20044;-72
2024/01/20 03:22:49;;;;;;;38.08;18.17;;;;;;;-146.27;85.60;43355.75;5069547;28;20032;-72
2024/01/20 03:25:14;;;;;;;40.33;17.17;;;;;;;-146.27;86.35;43323.91;5066667;28;20044;-73
2024/01/20 03:27:40;;;;;;;37.33;17.83;;;;;;;-146.27;85.94;43278.16;5049069;28;20508;-72
2024/01/20 03:30:06;;;;;;;40.92;16.52;;;;;;;-146.27;85.22;43355.75;5067956;28;20028;-72
2024/01/20 03:32:31;;;;;;;38.50;18.63;;;;;;;-146.27;85.27;43298.06;5055303;28;20036;-73
2024/01/20 03:34:57;;;;;;;43.38;17.63;;;;;;;-146.27;86.12;43292.09;5065886;28;20029;-72
2024/01/20 03:37:22;;;;;;;40.13;19.38;;;;;;;-146.27;85.43;43315.97;5070291;28;20025;-72
2024/01/20 03:39:47;;;;;;;35.05;17.45;;;;;;;-146.27;85.53;43323.91;5072879;28;20028;-72
2024/01/20 03:42:13;;;;;;;37.05;15.50;;;;;;;-146.27;86.02;43393.53;5055727;28;20031;-73
2024/01/20 03:44:38;;;;;;;41.40;15.05;;;;;;;-146.27;87.89;43333.88;5060308;28;20392;-72
2024/01/20 03:47:03;;;;;;;43.03;17.30;;;;;;;-146.27;86.65;43240.38;5056162;28;20032;-72
2024/01/20 03:49:29;;;;;;;38.38;15.93;;;;;;;-146.27;86.28;43306.00;5066505;28;20032;-73
2024/01/20 03:51:55;;;;;;;33.50;15.75;;;;;;;-146.27;85.39;43331.88;5067499;28;20481;-72
2024/01/20 03:54:20;;;;;;;39.58;17.65;;;;;;;-146.27;85.72;43292.09;5072673;28;20105;-72
2024/01/20 03:56:45;;;;;;;40.10;17.52;;;;;;;-146.27;85.67;43325.91;5072168;28;20024;-72
2024/01/20 03:59:11;;;;;;;38.33;17.98;;;;;;;-146.27;85.49;43365.69;5072330;28;20031;-72
2024/01/20 04:01:36;;;;;;;36.70;17.60;;;;;;;-146.27;86.06;43310.00;5072030;28;20036;-72
2024/01/20 04:04:04;;;;;;;40.45;16.85;;;;;;;-146.27;86.63;43311.97;5070663;28;20640;-73
2024/01/20 04:06:32;;;;;;;35.35;15.75;;;;;;;-146.27;86.97;43302.03;5062989;28;20495;-73
2024/01/20 04:08:58;;;;;;;39.97;18.13;;;;;;;-146.27;85.72;43284.13;5072087;28;20028;-73
2024/01/20 04:11:23;;;;;;;38.95;16.98;;;;;;;-146.27;86.52;43329.88;5070744;28;20448;-72
2024/01/20 04:13:48;;;;;;;30.67;14.73;;;;;;;-146.27;87.20;43280.16;5072189;28;20456;-72
2024/01/20 04:16:14;;;;;;;32.58;14.73;;;;;;;-146.27;87.71;43270.22;5068146;28;20130;-73
2024/01/20 04:18:39;;;;;;;32.22;14.90;;;;;;;-146.27;86.94;43308.00;5057321;28;20036;-73
2024/01/20 04:21:04;;;;;;;35.55;17.05;;;;;;;-146.27;87.50;43272.19;5066882;28;20025;-72
2024/01/20 04:23:30;;;;;;;34.63;15.85;;;;;;;-146.27;86.93;43240.38;5052290;28;20029;-73
2024/01/20 04:25:55;;;;;;;35.88;17.30;;;;;;;-146.27;87.29;43238.38;5066460;28;20136;-72
2024/01/20 04:28:21;;;;;;;41.88;16.73;;;;;;;-146.27;86.63;43250.31;5055007;28;20108;-73
2024/01/20 04:30:46;;;;;;;43.10;16.55;;;;;;;-146.27;85.91;43290.09;5071376;28;20025;-72
2024/01/20 04:33:12;;;;;;;36.72;17.35;;;;;;;-146.27;86.19;43292.09;5070044;28;20040;-72
2024/01/20 04:35:37;;;;;;;29.95;15.43;;;;;;;-146.27;87.40;43220.47;5068192;28;20450;-72
2024/01/20 04:38:03;;;;;;;34.33;15.55;;;;;;;-146.27;87.43;43236.41;5068808;28;20024;-73
2024/01/20 04:40:28;;;;;;;34.85;15.68;;;;;;;-146.27;87.63;43252.31;5062747;28;20107;-72
2024/01/20 04:42:54;;;;;;;30.70;15.10;;;;;;;-146.27;87.43;43280.16;5055331;28;20033;-72
2024/01/20 04:45:20;;;;;;;40.08;17.15;;;;;;;-146.27;87.10;43232.41;5069593;28;20044;-75
2024/01/20 04:47:45;;;;;;;34.85;15.52;;;;;;;-146.27;86.52;43268.22;5066913;28;20021;-72
2024/01/20 04:50:11;;;;;;;37.80;17.73;;;;;;;-146.27;86.63;43256.28;5068977;28;20401;-72
2024/01/20 04:52:37;;;;;;;35.38;15.38;;;;;;;-146.27;87.02;43260.25;5068172;28;20040;-73
2024/01/20 04:55:02;;;;;;;33.03;16.42;;;;;;;-146.27;86.79;43240.38;5068237;28;20031;-73
2024/01/20 04:57:28;;;;;;;35.22;16.17;;;;;;;-146.27;86.68;43230.44;5070446;28;20031;-72
2024/01/20 04:59:53;;;;;;;37.33;16.70;;;;;;;-146.27;86.40;43304.03;5069834;28;20021;-72
2024/01/20 05:02:19;;;;;;;34.88;16.63;;;;;;;-146.27;86.56;43254.31;5065934;28;20068;-73
2024/01/20 05:04:44;;;;;;;37.63;16.95;;;;;;;-146.27;85.51;43286.13;5069333;28;20081;-72
2024/01/20 05:07:10;;;;;;;36.67;16.70;;;;;;;-146.27;85.96;43288.13;5069944;28;20060;-72
2024/01/20 05:09:35;;;;;;;41.28;17.52;;;;;;;-146.27;85.56;43292.09;5069703;28;20057;-72
2024/01/20 05:12:01;;;;;;;36.67;16.65;;;;;;;-146.27;86.86;43290.09;5068729;28;20025;-72
2024/01/20 05:14:26;;;;;;;38.88;16.27;;;;;;;-146.27;87.37;43224.47;5070627;28;20016;-73
2024/01/20 05:16:51;;;;;;;31.50;15.13;;;;;;;-146.27;87.00;43280.16;5067821;28;20035;-73
2024/01/20 05:19:17;;;;;;;34.40;14.55;;;;;;;-146.27;87.23;43290.09;5071076;28;20024;-73
2024/01/20 05:21:42;;;;;;;38.90;16.48;;;;;;;-146.27;86.88;43252.31;5069758;28;20024;-73
2024/01/20 05:24:07;;;;;;;30.15;14.48;;;;;;;-146.27;86.84;43288.13;5069617;28;20083;-73
2024/01/20 05:26:33;;;;;;;38.17;16.42;;;;;;;-146.27;87.65;43256.28;5069020;28;20052;-72
2024/01/20 05:28:58;;;;;;;33.08;15.52;;;;;;;-146.27;87.13;43236.41;5069859;28;20365;-73
2024/01/20 05:31:24;;;;;;;40.08;16.90;;;;;;;-146.27;87.08;43250.31;5065318;28;20062;-73
2024/01/20 05:33:50;;;;;;;43.30;15.00;;;;;;;-146.27;86.89;43272.19;5064738;28;20039;-72
2024/01/20 05:36:16;;;;;;;34.92;14.65;;;;;;;-146.27;86.54;43248.34;5068903;28;20029;-72
2024/01/20 05:38:41;;;;;;;36.45;13.77;;;;;;;-146.27;87.70;43264.25;5065317;28;20025;-72
2024/01/20 05:41:07;;;;;;;31.65;14.38;;;;;;;-146.27;88.84;43268.22;5069505;28;20032;-72
2024/01/20 05:43:33;;;;;;;33.22;14.45;;;;;;;-146.27;89.01;43220.47;5070595;28;20123;-73
2024/01/20 05:45:58;;;;;;;46.50;16.83;;;;;;;-146.27;88.51;43154.84;5068733;28;20119;-73
2024/01/20 05:48:23;;;;;;;33.63;16.13;;;;;;;-146.27;87.81;43240.38;5069979;28;20081;-73
2024/01/20 05:50:49;;;;;;;40.38;14.82;;;;;;;-146.27;88.83;43224.47;5068662;28;20162;-73
2024/01/20 05:53:14;;;;;;;38.33;14.88;;;;;;;-146.27;87.86;43250.31;5070578;28;20021;-72
2024/01/20 05:55:39;;;;;;;38.30;15.10;;;;;;;-146.27;87.32;43196.63;5066962;28;20039;-72
2024/01/20 05:58:05;;;;;;;30.75;12.82;;;;;;;-146.27;87.42;43232.41;5061324;28;20021;-72
2024/01/20 06:00:31;;;;;;;36.85;13.93;;;;;;;-146.27;87.49;43204.56;5064047;28;20040;-72
2024/01/20 06:02:56;;;;;;;32.17;13.48;;;;;;;-146.27;87.89;43260.25;5053823;28;20025;-73
2024/01/20 06:05:22;;;;;;;35.60;15.75;;;;;;;-146.27;87.17;43252.31;5069394;28;20115;-72
2024/01/20 06:07:47;;;;;;;34.40;15.10;;;;;;;-146.27;88.29;43198.59;5067675;28;20115;-73
2024/01/20 06:10:12;;;;;;;38.38;13.75;;;;;;;-146.27;88.43;43210.53;5067170;28;20035;-73
2024/01/20 06:12:38;;;;;;;31.90;13.68;;;;;;;-146.27;87.79;43216.50;5062350;28;20040;-73
2024/01/20 06:15:04;;;;;;;34.45;14.50;;;;;;;-146.27;87.26;43240.38;5060257;28;20020;-73
2024/01/20 06:17:29;;;;;;;35.72;14.88;;;;;;;-146.27;86.47;43248.34;5069117;28;20331;-73
2024/01/20 06:19:54;;;;;;;35.20;14.15;;;;;;;-146.27;86.80;43228.44;5069516;28;20028;-73
2024/01/20 06:22:20;;;;;;;30.88;12.85;;;;;;;-146.27;86.58;43258.28;5064465;28;20029;-72
2024/01/20 06:24:45;;;;;;;31.63;12.63;;;;;;;-146.27;86.67;43216.50;5069072;28;20055;-72
2024/01/20 06:27:11;;;;;;;27.13;12.63;;;;;;;-146.27;86.97;43228.44;5069220;28;20037;-73
2024/01/20 06:29:40;;;;;;;40.45;13.48;;;;;;;-146.27;86.95;43252.31;5068749;28;20123;-73
2024/01/20 06:32:06;;;;;;;35.33;13.35;;;;;;;-146.27;87.26;43248.34;5067177;28;20024;-73
2024/01/20 06:34:32;;;;;;;31.73;12.35;;;;;;;-146.27;87.56;43216.50;5060547;28;20044;-73
2024/01/20 06:36:57;;;;;;;29.40;13.00;;;;;;;-146.27;86.51;43276.19;5065072;28;20032;-73
2024/01/20 06:39:23;;;;;;;30.17;11.95;;;;;;;-146.27;86.24;43266.22;5066917;28;20023;-73
2024/01/20 06:41:50;;;;;;;30.23;12.57;;;;;;;-146.27;86.62;43236.41;5063877;28;20162;-73
2024/01/20 06:44:16;;;;;;;30.70;13.68;;;;;;;-146.27;86.08;43268.22;5068215;28;20032;-72
2024/01/20 06:46:41;;;;;;;30.77;12.63;;;;;;;-146.27;86.81;43236.41;5065483;28;20025;-73
2024/01/20 06:49:06;;;;;;;33.22;13.57;;;;;;;-146.27;86.43;43254.31;5067324;28;20020;-73
2024/01/20 06:51:32;;;;;;;37.67;12.77;;;;;;;-146.27;86.43;43236.41;5067925;28;20059;-73
2024/01/20 06:53:57;;;;;;;39.67;13.18;;;;;;;-146.27;87.12;43238.38;5069823;28;20432;-72
2024/01/20 06:56:26;;;;;;;29.33;12.07;;;;;;;-146.27;87.01;43252.31;5063780;28;20017;-72
2024/01/20 06:58:55;;;;;;;30.23;12.45;;;;;;;-146.27;88.06;43200.59;5059542;28;20021;-73
2024/01/20 07:01:22;;;;;;;24.35;10.82;;;;;;;-146.27;88.36;43228.44;5065632;28;20024;-73
2024/01/20 07:03:47;;;;;;;27.10;12.10;;;;;;;-146.27;87.70;43216.50;5067986;28;20127;-72
2024/01/20 07:06:13;;;;;;;34.40;13.23;;;;;;;-146.27;87.40;43224.47;5068564;28;20095;-73
2024/01/20 07:08:39;;;;;;;34.08;12.65;;;;;;;-146.27;87.07;43252.31;5069324;28;20055;-73
2024/01/20 07:11:09;;;;;;;28.80;12.82;;;;;;;-146.27;86.78;43266.22;5067027;28;20025;-73
2024/01/20 07:13:35;;;;;;;29.83;13.32;;;;;;;-146.27;87.51;43234.41;5070277;28;20035;-73
2024/01/20 07:16:10;;;;;;;33.60;14.20;;;;;;;-146.27;87.50;43238.38;5070697;28;20031;-72
2024/01/20 07:18:35;;;;;;;26.98;11.18;;;;;;;-146.27;87.92;43252.31;5072011;28;20130;-74
2024/01/20 07:21:01;;;;;;;29.67;11.75;;;;;;;-146.27;87.40;43244.34;5068908;28;20025;-73
2024/01/20 07:23:26;;;;;;;35.15;13.68;;;;;;;-146.27;87.18;43252.31;5071158;28;20040;-73
2024/01/20 07:25:52;;;;;;;36.83;13.27;;;;;;;-146.27;87.71;43308.00;5061787;28;20114;-74
2024/01/20 07:28:17;;;;;;;32.08;13.35;;;;;;;-146.27;87.22;43367.69;5055464;28;20173;-74
2024/01/20 07:30:43;;;;;;;26.73;12.75;;;;;;;-146.27;87.28;43447.25;5065738;28;20078;-73
2024/01/20 07:33:08;;;;;;;31.35;12.00;;;;;;;-146.27;87.17;43498.97;5072680;28;20032;-74
2024/01/20 07:35:34;;;;;;;30.85;13.10;;;;;;;-146.27;86.89;43542.72;5060316;28;20104;-73
2024/01/20 07:37:59;;;;;;;36.13;11.77;;;;;;;-146.27;86.34;43654.13;5061005;28;20036;-73
2024/01/20 07:40:25;;;;;;;30.85;12.88;;;;;;;-146.27;87.17;43693.91;5070301;28;20028;-73
2024/01/20 07:42:50;;;;;;;35.63;13.07;;;;;;;-146.27;86.31;43618.31;5056689;28;20039;-73
2024/01/20 07:45:15;;;;;;;32.03;12.60;;;;;;;-146.27;86.16;43709.84;5063746;28;20099;-73
2024/01/20 07:47:41;;;;;;;32.50;13.52;;;;;;;-146.27;85.99;43670.06;5078938;28;20051;-73
2024/01/20 07:50:07;;;;;;;31.00;12.75;;;;;;;-146.27;86.16;43705.84;5071338;28;20032;-73
2024/01/20 07:52:33;;;;;;;29.23;11.63;;;;;;;-146.27;88.29;43713.81;5064628;28;20141;-73
2024/01/20 07:54:58;;;;;;;33.88;13.18;;;;;;;-146.27;87.30;43676.03;5068462;28;20489;-73
2024/01/20 07:57:23;;;;;;;28.92;12.15;;;;;;;-146.27;86.97;43682.00;5065852;28;20020;-73
2024/01/20 07:59:49;;;;;;;29.00;13.38;;;;;;;-146.27;86.70;43674.03;5063450;28;20095;-73
2024/01/20 08:02:14;;;;;;;33.97;13.35;;;;;;;-146.27;86.16;43725.75;5074318;28;20089;-71
2024/01/20 08:04:39;;;;;;;31.23;12.85;;;;;;;-146.27;86.03;43757.59;5065085;28;20035;-73
2024/01/20 08:07:05;;;;;;;31.65;13.77;;;;;;;-146.27;85.92;43765.53;5065466;28;20025;-72
2024/01/20 08:09:30;;;;;;;40.75;15.38;;;;;;;-146.27;86.53;43761.56;5063632;28;20017;-72
2024/01/20 08:11:55;;;;;;;41.42;15.98;;;;;;;-146.27;87.17;43727.75;5072769;28;20040;-72
2024/01/20 08:14:21;;;;;;;35.00;13.50;;;;;;;-146.27;86.31;43807.31;5071719;28;20032;-73
2024/01/20 08:16:46;;;;;;;32.22;14.00;;;;;;;-146.27;87.18;43777.47;5061207;28;20028;-73
2024/01/20 08:19:12;;;;;;;29.60;13.20;;;;;;;-146.27;86.78;43813.28;5065145;28;20388;-72
2024/01/20 08:21:37;;;;;;;37.97;14.48;;;;;;;-146.27;86.80;43749.63;5068747;28;20044;-72
2024/01/20 08:24:02;;;;;;;33.75;13.73;;;;;;;-146.27;88.05;43765.53;5070373;28;20045;-72
2024/01/20 08:26:28;;;;;;;28.38;13.13;;;;;;;-146.27;88.11;43743.66;5068523;28;20116;-73
2024/01/20 08:28:53;;;;;;;36.30;13.88;;;;;;;-146.27;87.95;43741.66;5061037;28;20055;-72
2024/01/20 08:31:18;;;;;;;28.42;13.57;;;;;;;-146.27;88.85;43745.66;5063146;28;20032;-72
2024/01/20 08:33:44;;;;;;;38.13;15.25;;;;;;;-146.27;87.54;43719.78;5064458;28;20020;-72
2024/01/20 08:36:09;;;;;;;36.45;14.82;;;;;;;-146.27;86.99;43741.66;5065395;28;20377;-72
2024/01/20 08:38:35;;;;;;;39.47;15.20;;;;;;;-146.27;87.00;43727.75;5063103;28;20098;-72
2024/01/20 08:41:07;;;;;;;35.33;15.90;;;;;;;-146.27;86.15;43777.47;5063275;28;20472;-72
2024/01/20 08:43:32;;;;;;;38.67;17.13;;;;;;;-146.27;86.37;43841.13;5062547;28;20373;-72
2024/01/20 08:45:59;;;;;;;36.13;13.35;;;;;;;-146.27;87.00;43855.06;5082158;28;20062;-72
2024/01/20 08:48:24;;;;;;;43.45;16.35;;;;;;;-146.27;87.56;43865.00;5069592;28;20025;-73
2024/01/20 08:50:49;;;;;;;39.58;16.65;;;;;;;-146.27;86.89;43813.28;5069113;28;20028;-72
2024/01/20 08:53:15;;;;;;;45.15;15.88;;;;;;;-146.27;86.33;43805.31;5078800;28;20111;-72
2024/01/20 08:55:40;;;;;;;44.70;17.67;;;;;;;-146.27;85.15;43880.94;5072570;28;20039;-72
2024/01/20 08:58:05;;;;;;;43.97;16.08;;;;;;;-146.27;86.67;43869.00;5069511;28;20061;-72
2024/01/20 09:00:31;;;;;;;41.17;17.58;;;;;;;-146.27;86.89;43863.03;5069600;28;20024;-73
2024/01/20 09:02:57;;;;;;;44.70;17.55;;;;;;;-146.27;86.57;43857.06;5066855;28;20400;-73
2024/01/20 09:05:22;;;;;;;38.75;17.25;;;;;;;-146.27;85.48;43870.97;5064239;28;20034;-72
2024/01/20 09:07:47;;;;;;;38.42;16.83;;;;;;;-146.27;86.07;43884.91;5068640;28;20378;-73
2024/01/20 09:10:13;;;;;;;34.63;16.10;;;;;;;-146.27;86.57;43892.88;5067356;28;20457;-74
2024/01/20 09:12:38;;;;;;;51.42;18.42;;;;;;;-146.27;85.77;43811.28;5075945;28;20369;-72
2024/01/20 09:15:04;;;;;;;31.05;15.88;;;;;;;-146.27;84.25;43880.94;5071549;28;20078;-71
2024/01/20 09:17:32;;;;;;;38.05;15.00;;;;;;;-146.27;84.21;43916.75;5069328;28;20039;-72
2024/01/20 09:19:57;;;;;;;35.53;15.05;;;;;;;-146.27;84.61;43892.88;5069580;28;20476;-73
2024/01/20 09:22:23;;;;;;;36.95;15.07;;;;;;;-146.27;84.58;43912.75;5069058;28;20031;-73
2024/01/20 09:24:48;;;;;;;30.25;12.38;;;;;;;-146.27;85.43;43946.59;5070848;28;20045;-73
2024/01/20 09:27:17;;;;;;;26.52;12.30;;;;;;;-146.27;85.76;43934.66;5069312;28;20056;-74
2024/01/20 09:29:42;;;;;;;24.77;11.10;;;;;;;-146.27;85.51;43962.50;5068904;28;20036;-72
2024/01/20 09:32:08;;;;;;;29.48;12.50;;;;;;;-146.27;85.04;43956.53;5071090;28;20102;-74
2024/01/20 09:34:34;;;;;;;28.98;13.27;;;;;;;-146.27;84.16;43926.69;5069757;28;20028;-73
2024/01/20 09:36:59;;;;;;;24.08;11.32;;;;;;;-146.27;84.14;44036.09;5070378;28;20028;-73
2024/01/20 09:39:24;;;;;;;23.83;11.07;;;;;;;-146.27;83.04;43984.38;5070837;28;20027;-72
2024/01/20 09:41:51;;;;;;;28.40;12.23;;;;;;;-146.27;83.39;43960.50;5069873;28;20036;-74
2024/01/20 09:44:17;;;;;;;26.05;11.32;;;;;;;-146.27;82.28;43936.63;5078083;28;20024;-73
2024/01/20 09:46:43;;;;;;;26.80;11.48;;;;;;;-146.27;81.96;43998.31;5090796;28;20024;-73
2024/01/20 09:49:12;;;;;;;21.98;9.35;;;;;;;-146.27;82.71;44040.09;5082726;28;20027;-73
2024/01/20 09:51:49;;;;;;;24.90;10.40;;;;;;;-146.27;82.08;44024.16;5069715;28;20044;-73
2024/01/20 09:54:15;;;;;;;26.90;10.30;;;;;;;-146.27;81.95;44032.13;5070252;28;20021;-74
2024/01/20 09:56:40;;;;;;;28.00;9.93;;;;;;;-146.27;81.80;44056.00;5068872;28;20127;-74
2024/01/20 09:59:08;;;;;;;23.85;9.10;;;;;;;-146.27;82.53;44069.94;5077984;28;20028;-73
2024/01/20 10:01:34;;;;;;;20.30;9.13;;;;;;;-146.27;83.19;44022.19;5081638;28;20380;-73
2024/01/20 10:04:03;;;;;;;25.23;9.68;;;;;;;-146.27;83.12;44052.03;5069133;28;20027;-74
2024/01/20 10:06:37;;;;;;;21.45;8.93;;;;;;;-146.27;83.09;44008.25;5069976;28;20024;-74
2024/01/20 10:09:03;;;;;;;19.98;8.30;;;;;;;-146.27;82.14;44036.09;5067604;28;20028;-73
2024/01/20 10:11:28;;;;;;;27.67;9.75;;;;;;;-146.27;81.65;44071.91;5068277;28;20031;-72
2024/01/20 10:13:55;;;;;;;22.58;9.70;;;;;;;-146.27;81.19;44071.91;5068644;28;20029;-73
2024/01/20 10:16:20;;;;;;;20.58;8.35;;;;;;;-146.27;80.87;44155.47;5069289;28;20530;-74
2024/01/20 10:18:46;;;;;;;21.48;8.50;;;;;;;-146.27;80.55;44155.47;5068157;28;20032;-72
2024/01/20 10:21:11;;;;;;;24.25;9.73;;;;;;;-146.27;81.08;44191.28;5072764;28;20069;-72
2024/01/20 10:23:37;;;;;;;22.75;9.73;;;;;;;-146.27;79.93;44151.50;5069292;28;20407;-72
2024/01/20 10:26:09;;;;;;;20.73;8.35;;;;;;;-146.27;79.48;44195.28;5068786;28;20499;-72
2024/01/20 10:28:34;;;;;;;19.90;8.00;;;;;;;-146.27;79.23;44183.34;5063141;28;20033;-72
2024/01/20 10:31:09;;;;;;;20.05;7.82;;;;;;;-146.27;79.04;44187.31;5068720;28;20025;-71
2024/01/20 10:33:35;;;;;;;22.73;9.15;;;;;;;-146.27;79.02;44247.00;5068928;28;20035;-73
2024/01/20 10:36:02;;;;;;;20.85;8.63;;;;;;;-146.27;79.77;44231.09;5068350;28;20035;-72
2024/01/20 10:38:36;;;;;;;19.67;9.10;;;;;;;-146.27;79.56;44199.25;5062135;28;20092;-73
2024/01/20 10:41:04;;;;;;;21.42;8.35;;;;;;;-146.27;79.15;44221.13;5070944;28;20036;-73
2024/01/20 10:43:39;;;;;;;20.63;9.20;;;;;;;-146.27;80.45;44243.03;5052238;28;20033;-72
2024/01/20 10:46:14;;;;;;;19.80;8.50;;;;;;;-146.27;79.72;44231.09;5061806;28;20039;-73
2024/01/20 10:48:46;;;;;;;14.35;7.43;;;;;;;-146.27;80.15;44233.06;5073072;28;20032;-73
2024/01/20 10:51:17;;;;;;;20.27;8.80;;;;;;;-146.27;78.54;44270.88;5094107;28;20046;-72
2024/01/20 10:53:43;;;;;;;17.85;8.05;;;;;;;-146.27;77.76;44378.31;5079129;28;20633;-72
2024/01/20 10:56:10;;;;;;;18.52;6.78;;;;;;;-146.27;78.27;44382.31;5077008;28;20042;-73